sensor_id;sensor_type;location;lat;lon;timestamp;pressure;altitude;pressure_sealevel;temperature;humidity
21956;BME280;11142;49.930;8.606;2022-09-09T00:00:15;99589.00;;;18.49;77.04
21956;BME280;11142;49.930;8.606;2022-09-09T00:02:49;99587.34;;;18.40;77.60
21956;BME280;11142;49.930;8.606;2022-09-09T00:05:29;99586.00;;;18.28;78.67
21956;BME280;11142;49.930;8.606;2022-09-09T00:08:00;99589.06;;;18.15;79.43
21956;BME280;11142;49.930;8.606;2022-09-09T00:10:34;99589.50;;;18.02;80.14
21956;BME280;11142;49.930;8.606;2022-09-09T00:13:14;99578.59;;;17.89;80.97
21956;BME280;11142;49.930;8.606;2022-09-09T00:15:52;99588.06;;;17.82;81.08
21956;BME280;11142;49.930;8.606;2022-09-09T00:18:27;99579.84;;;17.77;81.84
21956;BME280;11142;49.930;8.606;2022-09-09T00:21:03;99582.22;;;17.63;82.48
21956;BME280;11142;49.930;8.606;2022-09-09T00:23:38;99584.84;;;17.63;82.91
21956;BME280;11142;49.930;8.606;2022-09-09T00:26:13;99581.09;;;17.65;83.06
21956;BME280;11142;49.930;8.606;2022-09-09T00:28:48;99583.72;;;17.65;83.20
21956;BME280;11142;49.930;8.606;2022-09-09T00:31:23;99575.00;;;17.65;82.76
21956;BME280;11142;49.930;8.606;2022-09-09T00:33:53;99577.63;;;17.65;83.12
21956;BME280;11142;49.930;8.606;2022-09-09T00:36:26;99579.13;;;17.67;82.82
21956;BME280;11142;49.930;8.606;2022-09-09T00:38:58;99581.25;;;17.46;83.93
21956;BME280;11142;49.930;8.606;2022-09-09T00:41:38;99584.78;;;17.37;84.40
21956;BME280;11142;49.930;8.606;2022-09-09T00:44:21;99584.09;;;17.35;85.48
21956;BME280;11142;49.930;8.606;2022-09-09T00:47:03;99584.94;;;17.35;85.26
21956;BME280;11142;49.930;8.606;2022-09-09T00:49:43;99588.34;;;17.28;85.99
21956;BME280;11142;49.930;8.606;2022-09-09T00:52:25;99579.25;;;17.22;86.27
21956;BME280;11142;49.930;8.606;2022-09-09T00:55:00;99584.97;;;17.18;86.35
21956;BME280;11142;49.930;8.606;2022-09-09T00:57:32;99583.78;;;17.12;86.83
21956;BME280;11142;49.930;8.606;2022-09-09T01:00:20;99585.88;;;17.09;87.17
21956;BME280;11142;49.930;8.606;2022-09-09T01:03:00;99587.72;;;17.16;86.97
21956;BME280;11142;49.930;8.606;2022-09-09T01:05:35;99594.75;;;17.33;86.38
21956;BME280;11142;49.930;8.606;2022-09-09T01:08:18;99574.66;;;17.42;85.95
21956;BME280;11142;49.930;8.606;2022-09-09T01:10:51;99586.81;;;17.43;86.04
21956;BME280;11142;49.930;8.606;2022-09-09T01:13:28;99584.94;;;17.35;86.18
21956;BME280;11142;49.930;8.606;2022-09-09T01:15:59;99580.09;;;17.23;87.04
21956;BME280;11142;49.930;8.606;2022-09-09T01:18:37;99575.75;;;17.14;87.54
21956;BME280;11142;49.930;8.606;2022-09-09T01:21:13;99574.03;;;17.05;87.62
21956;BME280;11142;49.930;8.606;2022-09-09T01:24:03;99573.88;;;17.06;88.11
21956;BME280;11142;49.930;8.606;2022-09-09T01:26:59;99571.84;;;17.18;87.16
21956;BME280;11142;49.930;8.606;2022-09-09T01:29:32;99571.47;;;17.13;87.57
21956;BME280;11142;49.930;8.606;2022-09-09T01:32:37;99573.06;;;17.06;88.05
21956;BME280;11142;49.930;8.606;2022-09-09T01:35:09;99573.69;;;16.99;87.98
21956;BME280;11142;49.930;8.606;2022-09-09T01:37:39;99569.00;;;16.93;88.97
21956;BME280;11142;49.930;8.606;2022-09-09T01:40:07;99558.16;;;16.88;88.89
21956;BME280;11142;49.930;8.606;2022-09-09T01:42:38;99560.94;;;17.05;88.38
21956;BME280;11142;49.930;8.606;2022-09-09T01:45:08;99561.22;;;17.02;88.22
21956;BME280;11142;49.930;8.606;2022-09-09T01:47:37;99558.66;;;17.10;87.83
21956;BME280;11142;49.930;8.606;2022-09-09T01:50:26;99556.00;;;17.02;87.95
21956;BME280;11142;49.930;8.606;2022-09-09T01:52:57;99561.84;;;16.95;88.31
21956;BME280;11142;49.930;8.606;2022-09-09T01:55:32;99564.16;;;16.98;88.19
21956;BME280;11142;49.930;8.606;2022-09-09T01:58:21;99565.34;;;17.04;88.19
21956;BME280;11142;49.930;8.606;2022-09-09T02:01:03;99563.25;;;17.08;87.80
21956;BME280;11142;49.930;8.606;2022-09-09T02:03:35;99557.25;;;16.97;88.42
21956;BME280;11142;49.930;8.606;2022-09-09T02:06:19;99570.38;;;16.97;89.05
21956;BME280;11142;49.930;8.606;2022-09-09T02:09:00;99568.44;;;16.99;88.72
21956;BME280;11142;49.930;8.606;2022-09-09T02:11:32;99566.84;;;17.07;88.70
21956;BME280;11142;49.930;8.606;2022-09-09T02:14:11;99566.91;;;17.15;88.68
21956;BME280;11142;49.930;8.606;2022-09-09T02:16:47;99571.84;;;17.18;88.18
21956;BME280;11142;49.930;8.606;2022-09-09T02:19:23;99575.88;;;17.30;87.77
21956;BME280;11142;49.930;8.606;2022-09-09T02:22:15;99581.47;;;17.52;86.73
21956;BME280;11142;49.930;8.606;2022-09-09T02:24:44;99579.13;;;17.67;85.46
21956;BME280;11142;49.930;8.606;2022-09-09T02:27:22;99574.13;;;17.82;84.98
21956;BME280;11142;49.930;8.606;2022-09-09T02:29:54;99588.75;;;17.84;85.08
21956;BME280;11142;49.930;8.606;2022-09-09T02:32:36;99586.97;;;17.93;84.57
21956;BME280;11142;49.930;8.606;2022-09-09T02:35:12;99594.13;;;18.09;84.06
21956;BME280;11142;49.930;8.606;2022-09-09T02:37:44;99586.59;;;18.14;83.79
21956;BME280;11142;49.930;8.606;2022-09-09T02:40:17;99584.94;;;18.13;83.83
21956;BME280;11142;49.930;8.606;2022-09-09T02:42:49;99583.97;;;18.14;83.88
21956;BME280;11142;49.930;8.606;2022-09-09T02:45:25;99582.16;;;18.14;83.39
21956;BME280;11142;49.930;8.606;2022-09-09T02:48:03;99593.47;;;18.15;83.34
21956;BME280;11142;49.930;8.606;2022-09-09T02:50:41;99583.56;;;18.34;82.55
21956;BME280;11142;49.930;8.606;2022-09-09T02:53:17;99578.09;;;18.28;82.72
21956;BME280;11142;49.930;8.606;2022-09-09T02:55:53;99582.72;;;18.34;82.47
21956;BME280;11142;49.930;8.606;2022-09-09T02:58:23;99586.66;;;18.30;82.58
21956;BME280;11142;49.930;8.606;2022-09-09T03:00:59;99582.84;;;18.24;82.90
21956;BME280;11142;49.930;8.606;2022-09-09T03:03:29;99578.47;;;18.33;82.48
21956;BME280;11142;49.930;8.606;2022-09-09T03:06:04;99584.28;;;18.11;82.98
21956;BME280;11142;49.930;8.606;2022-09-09T03:08:32;99583.94;;;18.05;83.65
21956;BME280;11142;49.930;8.606;2022-09-09T03:11:00;99586.34;;;17.99;83.70
21956;BME280;11142;49.930;8.606;2022-09-09T03:13:32;99597.03;;;17.97;84.12
21956;BME280;11142;49.930;8.606;2022-09-09T03:16:02;99590.16;;;18.04;83.95
21956;BME280;11142;49.930;8.606;2022-09-09T03:18:37;99583.38;;;17.94;84.19
21956;BME280;11142;49.930;8.606;2022-09-09T03:21:05;99591.56;;;17.91;84.27
21956;BME280;11142;49.930;8.606;2022-09-09T03:23:37;99594.00;;;17.84;84.56
21956;BME280;11142;49.930;8.606;2022-09-09T03:26:07;99594.84;;;17.93;84.47
21956;BME280;11142;49.930;8.606;2022-09-09T03:28:41;99595.38;;;17.96;84.22
21956;BME280;11142;49.930;8.606;2022-09-09T03:31:17;99589.41;;;17.86;84.72
21956;BME280;11142;49.930;8.606;2022-09-09T03:33:46;99591.06;;;17.87;85.20
21956;BME280;11142;49.930;8.606;2022-09-09T03:36:17;99593.91;;;18.02;84.51
21956;BME280;11142;49.930;8.606;2022-09-09T03:38:45;99597.91;;;18.14;83.92
21956;BME280;11142;49.930;8.606;2022-09-09T03:41:13;99598.72;;;18.15;83.77
21956;BME280;11142;49.930;8.606;2022-09-09T03:43:42;99595.41;;;18.04;84.44
21956;BME280;11142;49.930;8.606;2022-09-09T03:46:11;99599.47;;;17.99;84.70
21956;BME280;11142;49.930;8.606;2022-09-09T03:48:40;99596.63;;;17.84;85.59
21956;BME280;11142;49.930;8.606;2022-09-09T03:51:08;99589.09;;;17.64;86.41
21956;BME280;11142;49.930;8.606;2022-09-09T03:53:37;99578.09;;;17.42;87.79
21956;BME280;11142;49.930;8.606;2022-09-09T03:56:07;99584.28;;;17.16;89.08
21956;BME280;11142;49.930;8.606;2022-09-09T03:58:37;99577.63;;;17.04;89.83
21956;BME280;11142;49.930;8.606;2022-09-09T04:01:09;99583.56;;;17.06;90.00
21956;BME280;11142;49.930;8.606;2022-09-09T04:03:38;99582.41;;;16.90;91.08
21956;BME280;11142;49.930;8.606;2022-09-09T04:06:09;99575.84;;;16.86;91.11
21956;BME280;11142;49.930;8.606;2022-09-09T04:08:42;99572.69;;;16.83;91.24
21956;BME280;11142;49.930;8.606;2022-09-09T04:11:15;99566.47;;;16.84;91.33
21956;BME280;11142;49.930;8.606;2022-09-09T04:13:47;99567.69;;;16.89;90.93
21956;BME280;11142;49.930;8.606;2022-09-09T04:16:17;99573.94;;;16.96;91.03
21956;BME280;11142;49.930;8.606;2022-09-09T04:18:46;99565.13;;;16.97;90.58
21956;BME280;11142;49.930;8.606;2022-09-09T04:21:16;99566.09;;;16.96;90.91
21956;BME280;11142;49.930;8.606;2022-09-09T04:23:44;99562.19;;;17.00;90.80
21956;BME280;11142;49.930;8.606;2022-09-09T04:26:13;99567.34;;;17.10;90.39
21956;BME280;11142;49.930;8.606;2022-09-09T04:28:44;99567.06;;;17.13;90.25
21956;BME280;11142;49.930;8.606;2022-09-09T04:31:17;99567.75;;;17.15;90.18
21956;BME280;11142;49.930;8.606;2022-09-09T04:33:48;99563.72;;;17.29;89.54
21956;BME280;11142;49.930;8.606;2022-09-09T04:36:19;99568.06;;;17.38;88.88
21956;BME280;11142;49.930;8.606;2022-09-09T04:38:49;99572.84;;;17.42;88.50
21956;BME280;11142;49.930;8.606;2022-09-09T04:41:18;99565.75;;;17.35;88.98
21956;BME280;11142;49.930;8.606;2022-09-09T04:43:50;99568.75;;;17.22;89.35
21956;BME280;11142;49.930;8.606;2022-09-09T04:46:21;99566.69;;;17.08;90.46
21956;BME280;11142;49.930;8.606;2022-09-09T04:48:51;99572.25;;;17.05;90.44
21956;BME280;11142;49.930;8.606;2022-09-09T04:51:27;99567.00;;;16.87;91.48
21956;BME280;11142;49.930;8.606;2022-09-09T04:53:58;99571.34;;;16.79;92.31
21956;BME280;11142;49.930;8.606;2022-09-09T04:56:26;99571.50;;;16.77;92.33
21956;BME280;11142;49.930;8.606;2022-09-09T04:58:57;99573.06;;;16.70;92.88
21956;BME280;11142;49.930;8.606;2022-09-09T05:01:46;99588.03;;;16.60;93.52
21956;BME280;11142;49.930;8.606;2022-09-09T05:04:14;99579.63;;;16.57;93.61
21956;BME280;11142;49.930;8.606;2022-09-09T05:06:45;99587.50;;;16.47;94.58
21956;BME280;11142;49.930;8.606;2022-09-09T05:09:13;99594.69;;;16.55;94.54
21956;BME280;11142;49.930;8.606;2022-09-09T05:11:43;99601.50;;;16.65;93.79
21956;BME280;11142;49.930;8.606;2022-09-09T05:14:20;99600.63;;;16.74;93.92
21956;BME280;11142;49.930;8.606;2022-09-09T05:16:49;99608.31;;;16.76;93.68
21956;BME280;11142;49.930;8.606;2022-09-09T05:19:22;99614.69;;;16.73;93.73
21956;BME280;11142;49.930;8.606;2022-09-09T05:21:52;99618.31;;;16.90;93.29
21956;BME280;11142;49.930;8.606;2022-09-09T05:24:27;99617.72;;;16.96;92.21
21956;BME280;11142;49.930;8.606;2022-09-09T05:26:57;99620.25;;;17.06;91.98
21956;BME280;11142;49.930;8.606;2022-09-09T05:29:28;99621.06;;;17.06;91.18
21956;BME280;11142;49.930;8.606;2022-09-09T05:31:56;99627.06;;;17.16;90.87
21956;BME280;11142;49.930;8.606;2022-09-09T05:34:24;99631.63;;;17.32;89.85
21956;BME280;11142;49.930;8.606;2022-09-09T05:36:56;99632.22;;;17.26;90.01
21956;BME280;11142;49.930;8.606;2022-09-09T05:39:36;99630.03;;;17.39;89.63
21956;BME280;11142;49.930;8.606;2022-09-09T05:42:05;99629.00;;;17.32;89.35
21956;BME280;11142;49.930;8.606;2022-09-09T05:44:33;99625.78;;;17.20;90.14
21956;BME280;11142;49.930;8.606;2022-09-09T05:47:01;99628.56;;;17.01;91.27
21956;BME280;11142;49.930;8.606;2022-09-09T05:49:29;99627.75;;;17.00;91.31
21956;BME280;11142;49.930;8.606;2022-09-09T05:52:01;99631.84;;;16.85;92.05
21956;BME280;11142;49.930;8.606;2022-09-09T05:54:33;99631.84;;;16.68;92.86
21956;BME280;11142;49.930;8.606;2022-09-09T05:57:02;99641.56;;;16.75;92.96
21956;BME280;11142;49.930;8.606;2022-09-09T05:59:30;99651.91;;;16.77;93.12
21956;BME280;11142;49.930;8.606;2022-09-09T06:01:59;99644.47;;;16.72;93.27
21956;BME280;11142;49.930;8.606;2022-09-09T06:04:33;99643.47;;;17.00;92.82
21956;BME280;11142;49.930;8.606;2022-09-09T06:07:04;99647.44;;;17.40;90.49
21956;BME280;11142;49.930;8.606;2022-09-09T06:09:32;99634.13;;;17.77;88.72
21956;BME280;11142;49.930;8.606;2022-09-09T06:12:01;99646.28;;;18.03;86.70
21956;BME280;11142;49.930;8.606;2022-09-09T06:14:33;99647.00;;;18.47;84.81
21956;BME280;11142;49.930;8.606;2022-09-09T06:17:01;99657.84;;;18.94;82.54
21956;BME280;11142;49.930;8.606;2022-09-09T06:19:30;99651.34;;;19.31;80.12
21956;BME280;11142;49.930;8.606;2022-09-09T06:22:00;99641.34;;;19.42;79.80
21956;BME280;11142;49.930;8.606;2022-09-09T06:24:33;99648.09;;;19.69;78.13
21956;BME280;11142;49.930;8.606;2022-09-09T06:27:03;99645.09;;;19.80;77.15
21956;BME280;11142;49.930;8.606;2022-09-09T06:29:37;99652.34;;;19.78;76.73
21956;BME280;11142;49.930;8.606;2022-09-09T06:32:06;99652.97;;;19.96;76.38
21956;BME280;11142;49.930;8.606;2022-09-09T06:34:35;99662.16;;;20.17;75.06
21956;BME280;11142;49.930;8.606;2022-09-09T06:37:03;99655.16;;;20.48;74.59
21956;BME280;11142;49.930;8.606;2022-09-09T06:39:39;99658.72;;;20.63;73.10
21956;BME280;11142;49.930;8.606;2022-09-09T06:42:08;99661.38;;;20.55;72.71
21956;BME280;11142;49.930;8.606;2022-09-09T06:44:50;99657.25;;;20.52;72.56
21956;BME280;11142;49.930;8.606;2022-09-09T06:47:43;99657.13;;;20.54;72.90
21956;BME280;11142;49.930;8.606;2022-09-09T06:50:11;99658.00;;;20.22;74.44
21956;BME280;11142;49.930;8.606;2022-09-09T06:52:38;99653.75;;;20.29;73.97
21956;BME280;11142;49.930;8.606;2022-09-09T06:55:10;99647.69;;;20.59;73.50
21956;BME280;11142;49.930;8.606;2022-09-09T06:57:40;99658.88;;;20.61;73.23
21956;BME280;11142;49.930;8.606;2022-09-09T07:00:14;99654.28;;;20.55;72.92
21956;BME280;11142;49.930;8.606;2022-09-09T07:02:42;99643.94;;;20.46;72.87
21956;BME280;11142;49.930;8.606;2022-09-09T07:05:12;99656.25;;;20.06;74.25
21956;BME280;11142;49.930;8.606;2022-09-09T07:07:41;99656.25;;;19.98;75.09
21956;BME280;11142;49.930;8.606;2022-09-09T07:10:13;99658.91;;;19.82;75.72
21956;BME280;11142;49.930;8.606;2022-09-09T07:12:41;99667.31;;;19.86;75.46
21956;BME280;11142;49.930;8.606;2022-09-09T07:15:11;99663.56;;;19.72;76.24
21956;BME280;11142;49.930;8.606;2022-09-09T07:17:43;99660.72;;;19.74;76.05
21956;BME280;11142;49.930;8.606;2022-09-09T07:20:11;99662.53;;;19.73;76.50
21956;BME280;11142;49.930;8.606;2022-09-09T07:22:41;99664.19;;;19.58;77.24
21956;BME280;11142;49.930;8.606;2022-09-09T07:25:10;99658.44;;;19.63;76.69
21956;BME280;11142;49.930;8.606;2022-09-09T07:27:39;99659.41;;;19.86;75.87
21956;BME280;11142;49.930;8.606;2022-09-09T07:30:09;99669.53;;;20.37;73.98
21956;BME280;11142;49.930;8.606;2022-09-09T07:32:44;99665.56;;;20.41;73.86
21956;BME280;11142;49.930;8.606;2022-09-09T07:35:14;99676.94;;;20.26;73.50
21956;BME280;11142;49.930;8.606;2022-09-09T07:37:43;99667.91;;;20.12;74.94
21956;BME280;11142;49.930;8.606;2022-09-09T07:40:19;99680.09;;;20.29;73.65
21956;BME280;11142;49.930;8.606;2022-09-09T07:42:51;99683.09;;;20.10;74.75
21956;BME280;11142;49.930;8.606;2022-09-09T07:45:20;99675.47;;;20.23;74.28
21956;BME280;11142;49.930;8.606;2022-09-09T07:47:49;99686.31;;;20.36;74.23
21956;BME280;11142;49.930;8.606;2022-09-09T07:50:17;99691.31;;;20.70;72.52
21956;BME280;11142;49.930;8.606;2022-09-09T07:52:47;99686.97;;;20.77;71.90
21956;BME280;11142;49.930;8.606;2022-09-09T07:55:16;99684.09;;;20.95;70.81
21956;BME280;11142;49.930;8.606;2022-09-09T07:57:46;99696.44;;;21.02;70.88
21956;BME280;11142;49.930;8.606;2022-09-09T08:00:17;99692.44;;;21.14;70.29
21956;BME280;11142;49.930;8.606;2022-09-09T08:02:51;99688.78;;;21.61;68.68
21956;BME280;11142;49.930;8.606;2022-09-09T08:05:21;99699.28;;;21.92;67.93
21956;BME280;11142;49.930;8.606;2022-09-09T08:07:50;99699.59;;;22.11;66.51
21956;BME280;11142;49.930;8.606;2022-09-09T08:10:18;99703.63;;;22.37;65.82
21956;BME280;11142;49.930;8.606;2022-09-09T08:12:48;99713.66;;;22.27;65.86
21956;BME280;11142;49.930;8.606;2022-09-09T08:15:37;99712.91;;;22.18;65.63
21956;BME280;11142;49.930;8.606;2022-09-09T08:18:07;99708.44;;;22.18;65.76
21956;BME280;11142;49.930;8.606;2022-09-09T08:20:37;99717.13;;;22.42;65.09
21956;BME280;11142;49.930;8.606;2022-09-09T08:23:06;99711.00;;;22.27;64.25
21956;BME280;11142;49.930;8.606;2022-09-09T08:25:35;99711.34;;;22.09;65.38
21956;BME280;11142;49.930;8.606;2022-09-09T08:28:03;99715.66;;;22.24;64.94
21956;BME280;11142;49.930;8.606;2022-09-09T08:30:35;99722.22;;;22.58;64.57
21956;BME280;11142;49.930;8.606;2022-09-09T08:33:06;99725.78;;;22.36;64.28
21956;BME280;11142;49.930;8.606;2022-09-09T08:35:37;99732.28;;;22.48;64.58
21956;BME280;11142;49.930;8.606;2022-09-09T08:38:05;99731.44;;;22.62;63.43
21956;BME280;11142;49.930;8.606;2022-09-09T08:40:43;99727.78;;;22.34;63.99
21956;BME280;11142;49.930;8.606;2022-09-09T08:43:18;99722.81;;;22.01;65.00
21956;BME280;11142;49.930;8.606;2022-09-09T08:45:55;99725.34;;;22.47;63.87
21956;BME280;11142;49.930;8.606;2022-09-09T08:48:44;99724.34;;;22.48;63.26
21956;BME280;11142;49.930;8.606;2022-09-09T08:51:17;99716.47;;;22.84;63.04
21956;BME280;11142;49.930;8.606;2022-09-09T08:53:48;99713.19;;;22.96;61.92
21956;BME280;11142;49.930;8.606;2022-09-09T08:56:25;99710.91;;;22.93;62.20
21956;BME280;11142;49.930;8.606;2022-09-09T08:59:00;99712.72;;;23.28;60.99
21956;BME280;11142;49.930;8.606;2022-09-09T09:01:44;99719.97;;;23.77;59.73
21956;BME280;11142;49.930;8.606;2022-09-09T09:04:37;99715.72;;;23.83;58.97
21956;BME280;11142;49.930;8.606;2022-09-09T09:07:16;99708.53;;;24.04;58.18
21956;BME280;11142;49.930;8.606;2022-09-09T09:09:57;99719.59;;;24.08;58.41
21956;BME280;11142;49.930;8.606;2022-09-09T09:12:45;99713.41;;;24.22;57.45
21956;BME280;11142;49.930;8.606;2022-09-09T09:15:19;99718.94;;;24.27;57.19
21956;BME280;11142;49.930;8.606;2022-09-09T09:17:50;99710.06;;;24.41;56.34
21956;BME280;11142;49.930;8.606;2022-09-09T09:20:24;99707.84;;;24.17;57.51
21956;BME280;11142;49.930;8.606;2022-09-09T09:22:59;99716.94;;;24.29;57.22
21956;BME280;11142;49.930;8.606;2022-09-09T09:25:33;99717.66;;;23.46;59.30
21956;BME280;11142;49.930;8.606;2022-09-09T09:28:10;99724.16;;;23.29;60.99
21956;BME280;11142;49.930;8.606;2022-09-09T09:30:49;99712.22;;;23.18;62.82
21956;BME280;11142;49.930;8.606;2022-09-09T09:33:24;99710.84;;;24.35;59.96
21956;BME280;11142;49.930;8.606;2022-09-09T09:35:58;99704.97;;;26.33;53.65
21956;BME280;11142;49.930;8.606;2022-09-09T09:38:28;99708.13;;;26.87;50.98
21956;BME280;11142;49.930;8.606;2022-09-09T09:41:17;99710.19;;;27.23;49.59
21956;BME280;11142;49.930;8.606;2022-09-09T09:43:57;99697.59;;;27.37;49.07
21956;BME280;11142;49.930;8.606;2022-09-09T09:46:28;99695.00;;;25.89;53.36
21956;BME280;11142;49.930;8.606;2022-09-09T09:49:08;99697.66;;;24.82;56.32
21956;BME280;11142;49.930;8.606;2022-09-09T09:51:44;99690.63;;;24.06;63.39
21956;BME280;11142;49.930;8.606;2022-09-09T09:54:20;99693.50;;;22.84;68.61
21956;BME280;11142;49.930;8.606;2022-09-09T09:56:55;99681.22;;;21.58;75.88
21956;BME280;11142;49.930;8.606;2022-09-09T09:59:33;99679.03;;;21.47;76.80
21956;BME280;11142;49.930;8.606;2022-09-09T10:02:15;99676.00;;;20.96;75.34
21956;BME280;11142;49.930;8.606;2022-09-09T10:04:46;99674.84;;;20.68;75.28
21956;BME280;11142;49.930;8.606;2022-09-09T10:07:20;99674.63;;;20.39;78.30
21956;BME280;11142;49.930;8.606;2022-09-09T10:09:53;99664.16;;;20.06;78.51
21956;BME280;11142;49.930;8.606;2022-09-09T10:12:30;99682.78;;;19.97;80.19
21956;BME280;11142;49.930;8.606;2022-09-09T10:15:09;99669.41;;;19.98;81.58
21956;BME280;11142;49.930;8.606;2022-09-09T10:17:56;99668.09;;;20.96;79.52
21956;BME280;11142;49.930;8.606;2022-09-09T10:20:36;99673.69;;;23.37;68.56
21956;BME280;11142;49.930;8.606;2022-09-09T10:23:19;99665.56;;;25.71;56.70
21956;BME280;11142;49.930;8.606;2022-09-09T10:26:00;99681.94;;;27.78;49.27
21956;BME280;11142;49.930;8.606;2022-09-09T10:28:49;99674.72;;;28.28;45.72
21956;BME280;11142;49.930;8.606;2022-09-09T10:31:26;99685.31;;;27.67;46.62
21956;BME280;11142;49.930;8.606;2022-09-09T10:34:04;99702.94;;;28.79;43.74
21956;BME280;11142;49.930;8.606;2022-09-09T10:36:37;99686.03;;;27.81;44.93
21956;BME280;11142;49.930;8.606;2022-09-09T10:39:18;99684.13;;;28.31;43.86
21956;BME280;11142;49.930;8.606;2022-09-09T10:41:57;99686.06;;;29.79;39.70
21956;BME280;11142;49.930;8.606;2022-09-09T10:44:39;99687.81;;;31.51;36.95
21956;BME280;11142;49.930;8.606;2022-09-09T10:47:36;99687.09;;;31.89;34.54
21956;BME280;11142;49.930;8.606;2022-09-09T10:50:42;99682.38;;;32.35;34.52
21956;BME280;11142;49.930;8.606;2022-09-09T10:53:36;99691.03;;;34.29;31.80
21956;BME280;11142;49.930;8.606;2022-09-09T10:56:09;99675.16;;;34.33;30.95
21956;BME280;11142;49.930;8.606;2022-09-09T10:58:42;99678.50;;;35.57;29.23
21956;BME280;11142;49.930;8.606;2022-09-09T11:01:16;99672.25;;;35.22;29.97
21956;BME280;11142;49.930;8.606;2022-09-09T11:03:51;99665.53;;;32.61;32.74
21956;BME280;11142;49.930;8.606;2022-09-09T11:06:23;99657.31;;;30.33;36.44
21956;BME280;11142;49.930;8.606;2022-09-09T11:08:57;99663.44;;;28.81;39.12
21956;BME280;11142;49.930;8.606;2022-09-09T11:11:37;99658.34;;;28.00;39.38
21956;BME280;11142;49.930;8.606;2022-09-09T11:14:11;99653.91;;;27.44;38.73
21956;BME280;11142;49.930;8.606;2022-09-09T11:16:46;99649.00;;;26.59;40.71
21956;BME280;11142;49.930;8.606;2022-09-09T11:19:21;99652.63;;;26.84;40.91
21956;BME280;11142;49.930;8.606;2022-09-09T11:21:55;99656.88;;;26.92;39.64
21956;BME280;11142;49.930;8.606;2022-09-09T11:24:29;99657.22;;;30.28;34.48
21956;BME280;11142;49.930;8.606;2022-09-09T11:27:08;99659.19;;;28.91;37.79
21956;BME280;11142;49.930;8.606;2022-09-09T11:29:52;99648.81;;;27.68;40.35
21956;BME280;11142;49.930;8.606;2022-09-09T11:32:47;99652.00;;;26.89;42.55
21956;BME280;11142;49.930;8.606;2022-09-09T11:35:34;99640.06;;;26.47;42.67
21956;BME280;11142;49.930;8.606;2022-09-09T11:38:18;99647.13;;;25.96;42.34
21956;BME280;11142;49.930;8.606;2022-09-09T11:40:54;99644.88;;;25.60;43.57
21956;BME280;11142;49.930;8.606;2022-09-09T11:43:28;99654.31;;;25.56;44.08
21956;BME280;11142;49.930;8.606;2022-09-09T11:46:02;99649.50;;;25.18;46.83
21956;BME280;11142;49.930;8.606;2022-09-09T11:48:34;99651.91;;;24.87;47.83
21956;BME280;11142;49.930;8.606;2022-09-09T11:51:06;99635.06;;;27.08;42.88
21956;BME280;11142;49.930;8.606;2022-09-09T11:53:49;99662.53;;;30.51;36.09
21956;BME280;11142;49.930;8.606;2022-09-09T11:56:26;99670.06;;;29.49;37.67
21956;BME280;11142;49.930;8.606;2022-09-09T11:58:59;99658.78;;;31.48;35.34
21956;BME280;11142;49.930;8.606;2022-09-09T12:01:49;99665.03;;;31.09;34.84
21956;BME280;11142;49.930;8.606;2022-09-09T12:04:34;99658.41;;;28.36;38.94
21956;BME280;11142;49.930;8.606;2022-09-09T12:07:20;99664.03;;;26.98;42.39
21956;BME280;11142;49.930;8.606;2022-09-09T12:09:54;99657.75;;;25.76;45.61
21956;BME280;11142;49.930;8.606;2022-09-09T12:12:28;99666.56;;;24.76;48.11
21956;BME280;11142;49.930;8.606;2022-09-09T12:15:21;99664.50;;;26.75;44.92
21956;BME280;11142;49.930;8.606;2022-09-09T12:17:52;99660.00;;;27.52;42.14
21956;BME280;11142;49.930;8.606;2022-09-09T12:20:31;99651.56;;;27.55;42.18
21956;BME280;11142;49.930;8.606;2022-09-09T12:23:19;99653.47;;;27.16;43.38
21956;BME280;11142;49.930;8.606;2022-09-09T12:26:00;99643.16;;;26.37;45.00
21956;BME280;11142;49.930;8.606;2022-09-09T12:28:44;99648.09;;;26.34;45.73
21956;BME280;11142;49.930;8.606;2022-09-09T12:31:20;99633.22;;;25.74;45.86
21956;BME280;11142;49.930;8.606;2022-09-09T12:33:50;99629.66;;;24.95;47.74
21956;BME280;11142;49.930;8.606;2022-09-09T12:36:21;99641.47;;;23.76;59.62
21956;BME280;11142;49.930;8.606;2022-09-09T12:38:50;99635.81;;;21.62;69.28
21956;BME280;11142;49.930;8.606;2022-09-09T12:41:21;99635.00;;;20.55;73.80
21956;BME280;11142;49.930;8.606;2022-09-09T12:43:50;99622.31;;;20.11;75.19
21956;BME280;11142;49.930;8.606;2022-09-09T12:46:31;99637.47;;;20.09;73.54
21956;BME280;11142;49.930;8.606;2022-09-09T12:49:18;99630.53;;;20.08;69.18
21956;BME280;11142;49.930;8.606;2022-09-09T12:51:52;99642.38;;;20.29;66.28
21956;BME280;11142;49.930;8.606;2022-09-09T12:54:21;99632.41;;;21.08;60.34
21956;BME280;11142;49.930;8.606;2022-09-09T12:56:50;99646.38;;;21.62;56.78
21956;BME280;11142;49.930;8.606;2022-09-09T12:59:24;99640.28;;;21.39;55.21
21956;BME280;11142;49.930;8.606;2022-09-09T13:01:58;99646.84;;;20.67;53.61
21956;BME280;11142;49.930;8.606;2022-09-09T13:04:27;99650.06;;;19.59;57.25
21956;BME280;11142;49.930;8.606;2022-09-09T13:07:06;99648.16;;;18.95;60.90
21956;BME280;11142;49.930;8.606;2022-09-09T13:09:38;99649.09;;;18.70;62.59
21956;BME280;11142;49.930;8.606;2022-09-09T13:12:13;99649.44;;;18.41;65.49
21956;BME280;11142;49.930;8.606;2022-09-09T13:14:44;99646.09;;;18.31;67.69
21956;BME280;11142;49.930;8.606;2022-09-09T13:17:21;99637.31;;;18.48;67.92
21956;BME280;11142;49.930;8.606;2022-09-09T13:19:55;99637.56;;;18.63;67.59
21956;BME280;11142;49.930;8.606;2022-09-09T13:22:30;99647.50;;;19.09;64.31
21956;BME280;11142;49.930;8.606;2022-09-09T13:25:02;99640.03;;;19.63;62.49
21956;BME280;11142;49.930;8.606;2022-09-09T13:27:39;99641.69;;;20.35;59.79
21956;BME280;11142;49.930;8.606;2022-09-09T13:30:23;99655.50;;;20.37;60.01
21956;BME280;11142;49.930;8.606;2022-09-09T13:33:20;99650.59;;;20.17;60.07
21956;BME280;11142;49.930;8.606;2022-09-09T13:35:53;99633.69;;;20.59;59.79
21956;BME280;11142;49.930;8.606;2022-09-09T13:38:24;99634.88;;;21.55;56.89